createdAt,value
2023-02-05T00:03:42.684Z,-0.48
2023-02-05T00:08:44.974Z,-0.51
2023-02-05T00:13:51.951Z,-0.52
2023-02-05T00:18:54.737Z,-0.61
2023-02-05T00:23:56.702Z,-0.65
2023-02-05T00:28:59.196Z,-0.72
2023-02-05T00:34:03.760Z,-0.78
2023-02-05T00:39:09.097Z,-0.81
2023-02-05T00:44:11.118Z,-0.83
2023-02-05T00:49:13.977Z,-0.84
2023-02-05T00:54:16.271Z,-0.82
2023-02-05T00:59:18.291Z,-0.82
2023-02-05T01:04:20.063Z,-0.80
2023-02-05T01:09:23.330Z,-0.82
2023-02-05T01:14:25.368Z,-0.81
2023-02-05T01:19:27.594Z,-0.83
2023-02-05T01:24:30.117Z,-0.82
2023-02-05T01:29:32.551Z,-0.86
2023-02-05T01:34:35.097Z,-0.87
2023-02-05T01:39:37.542Z,-0.89
2023-02-05T01:44:41.096Z,-0.90
2023-02-05T01:49:46.355Z,-0.93
2023-02-05T01:54:53.276Z,-0.96
2023-02-05T01:59:55.714Z,-0.96
2023-02-05T02:05:02.816Z,-0.98
2023-02-05T02:10:06.235Z,-0.97
2023-02-05T02:15:20.325Z,-0.98
2023-02-05T02:20:30.303Z,-1.04
2023-02-05T02:25:48.964Z,-1.12
2023-02-05T02:31:06.989Z,-1.22
2023-02-05T02:36:18.046Z,-1.32
2023-02-05T02:41:28.630Z,-1.40
2023-02-05T02:46:44.441Z,-1.46
2023-02-05T02:51:51.159Z,-1.51
2023-02-05T02:56:55.821Z,-1.52
2023-02-05T03:02:02.554Z,-1.51
2023-02-05T03:07:13.619Z,-1.53
2023-02-05T03:12:16.108Z,-1.59
2023-02-05T03:17:19.854Z,-1.64
2023-02-05T03:22:26.000Z,-1.68
2023-02-05T03:27:28.433Z,-1.71
2023-02-05T03:32:46.515Z,-1.80
2023-02-05T03:38:12.698Z,-1.90
2023-02-05T03:43:21.208Z,-2.01
2023-02-05T03:48:40.109Z,-2.09
2023-02-05T03:54:05.096Z,-2.25
2023-02-05T03:59:09.204Z,-2.36
2023-02-05T04:04:12.705Z,-2.46
2023-02-05T04:09:14.925Z,-2.52
2023-02-05T04:14:17.924Z,-2.49
2023-02-05T04:19:20.976Z,-2.48
2023-02-05T04:24:23.216Z,-2.54
2023-02-05T04:29:25.298Z,-2.62
2023-02-05T04:34:28.184Z,-2.69
2023-02-05T04:39:31.077Z,-2.73
2023-02-05T04:44:33.025Z,-2.74
2023-02-05T04:49:38.349Z,-2.75
2023-02-05T04:54:40.609Z,-2.75
2023-02-05T04:59:42.577Z,-2.74
2023-02-05T05:04:44.491Z,-2.69
2023-02-05T05:09:46.735Z,-2.64
2023-02-05T05:14:48.548Z,-2.63
2023-02-05T05:19:50.476Z,-2.68
2023-02-05T05:24:52.511Z,-2.76
2023-02-05T05:29:54.497Z,-2.86
2023-02-05T05:34:57.316Z,-2.94
2023-02-05T05:40:18.267Z,-3.12
2023-02-05T05:45:20.280Z,-3.31
2023-02-05T05:50:22.538Z,-3.46
2023-02-05T05:55:24.453Z,-3.58
2023-02-05T06:00:26.986Z,-3.68
2023-02-05T06:05:31.548Z,-3.75
2023-02-05T06:10:33.643Z,-3.83
2023-02-05T06:15:35.879Z,-3.87
2023-02-05T06:20:38.071Z,-3.86
2023-02-05T06:25:40.493Z,-3.81
2023-02-05T06:30:43.098Z,-3.76
2023-02-05T06:35:44.921Z,-3.76
2023-02-05T06:40:48.312Z,-3.78
2023-02-05T06:45:50.306Z,-3.81
2023-02-05T06:50:55.262Z,-3.86
2023-02-05T06:56:00.897Z,-3.85
2023-02-05T07:01:03.214Z,-3.84
2023-02-05T07:06:06.394Z,-3.77
2023-02-05T07:11:08.334Z,-3.76
2023-02-05T07:16:10.431Z,-3.72
2023-02-05T07:21:17.222Z,-3.54
2023-02-05T07:26:19.131Z,-2.78
2023-02-05T07:31:21.071Z,-2.52
2023-02-05T07:36:23.222Z,-2.65
2023-02-05T07:41:26.849Z,-2.72
2023-02-05T07:46:28.965Z,-2.68
2023-02-05T07:51:31.534Z,-2.48
2023-02-05T07:56:33.565Z,-2.19
2023-02-05T08:01:35.782Z,-1.95
2023-02-05T08:06:37.593Z,-1.90
2023-02-05T08:11:40.101Z,-1.90
2023-02-05T08:16:42.060Z,-1.87
2023-02-05T08:21:44.406Z,-1.80
2023-02-05T08:26:46.320Z,-1.75
2023-02-05T08:31:48.474Z,-1.69
2023-02-05T08:36:50.916Z,-1.53
2023-02-05T08:41:54.880Z,-1.38
2023-02-05T08:46:57.979Z,-1.22
2023-02-05T08:51:59.909Z,-1.05
2023-02-05T08:57:02.868Z,-0.63
2023-02-05T09:02:05.251Z,-0.13
2023-02-05T09:07:07.170Z,0.10
2023-02-05T09:12:10.853Z,0.06
2023-02-05T09:17:14.422Z,0.09
2023-02-05T09:22:18.442Z,0.28
2023-02-05T09:27:21.123Z,0.62
2023-02-05T09:32:23.567Z,0.77
2023-02-05T09:37:25.852Z,0.90
2023-02-05T09:42:39.227Z,1.08
2023-02-05T09:48:22.629Z,1.10
2023-02-05T09:53:37.206Z,1.14
2023-02-05T09:58:46.290Z,1.06
2023-02-05T10:04:00.779Z,0.80
2023-02-05T10:09:24.969Z,0.48
2023-02-05T10:14:39.255Z,0.36
2023-02-05T10:20:07.361Z,0.23
2023-02-05T10:25:34.784Z,0.16
2023-02-05T10:30:56.753Z,0.26
2023-02-05T10:36:02.479Z,0.32
2023-02-05T10:41:12.990Z,0.49
2023-02-05T10:46:17.248Z,0.52
2023-02-05T10:51:30.938Z,0.60
2023-02-05T10:56:33.151Z,0.84
2023-02-05T11:01:38.876Z,0.97
2023-02-05T11:06:51.288Z,0.86
2023-02-05T11:12:06.983Z,0.68
2023-02-05T11:17:32.125Z,0.58
2023-02-05T11:22:37.406Z,0.48
2023-02-05T11:27:39.499Z,0.45
2023-02-05T11:32:41.670Z,0.67
2023-02-05T11:37:45.190Z,0.94
2023-02-05T11:42:55.008Z,1.00
2023-02-05T11:48:00.248Z,0.96
2023-02-05T11:53:12.450Z,0.77
2023-02-05T11:58:36.996Z,0.50
2023-02-05T12:03:39.644Z,0.34
2023-02-05T12:08:48.336Z,0.10
2023-02-05T12:14:02.196Z,-0.09
2023-02-05T12:19:26.736Z,-0.27
2023-02-05T12:24:51.950Z,-0.32
2023-02-05T12:30:13.435Z,-0.33
2023-02-05T12:35:42.763Z,-0.31
2023-02-05T12:40:53.673Z,-0.27
2023-02-05T12:46:16.145Z,-0.26
2023-02-05T12:51:39.016Z,-0.19
2023-02-05T12:57:01.822Z,-0.15
2023-02-05T13:02:13.277Z,-0.27
2023-02-05T13:07:29.507Z,-0.17
2023-02-05T13:12:38.079Z,0.09
2023-02-05T13:17:57.746Z,0.37
2023-02-05T13:23:18.634Z,0.54
2023-02-05T13:28:41.405Z,0.58
2023-02-05T13:33:44.473Z,0.58
2023-02-05T13:39:13.702Z,0.51
2023-02-05T13:44:44.750Z,0.48
2023-02-05T13:50:05.650Z,0.48
2023-02-05T13:55:24.560Z,0.47
2023-02-05T14:00:28.471Z,0.42
2023-02-05T14:05:34.912Z,0.30
2023-02-05T14:10:42.103Z,0.18
2023-02-05T14:15:44.981Z,0.11
2023-02-05T14:20:46.853Z,-0.05
2023-02-05T14:26:11.423Z,-0.15
2023-02-05T14:31:47.780Z,-0.07
2023-02-05T14:36:50.926Z,0.14
2023-02-05T14:41:58.590Z,0.16
2023-02-05T14:47:29.301Z,0.12
2023-02-05T14:52:42.313Z,0.02
2023-02-05T14:58:03.339Z,-0.07
2023-02-05T15:03:20.090Z,-0.16
2023-02-05T15:08:46.214Z,-0.27
2023-02-05T15:14:36.915Z,-0.27
2023-02-05T15:19:44.130Z,-0.29
2023-02-05T15:24:49.375Z,-0.37
2023-02-05T15:29:57.271Z,-0.35
2023-02-05T15:35:12.856Z,-0.42
2023-02-05T15:40:33.060Z,-0.54
2023-02-05T15:45:40.385Z,-0.58
2023-02-05T15:50:56.349Z,-0.65
2023-02-05T15:55:59.966Z,-0.69
2023-02-05T16:01:03.473Z,-0.78
2023-02-05T16:06:07.228Z,-0.79
2023-02-05T16:11:09.090Z,-0.76
2023-02-05T16:16:23.215Z,-0.73
2023-02-05T16:21:36.744Z,-0.72
2023-02-05T16:26:48.667Z,-0.71
2023-02-05T16:31:59.503Z,-0.69
2023-02-05T16:37:05.521Z,-0.71
2023-02-05T16:42:16.286Z,-0.79
2023-02-05T16:47:20.151Z,-0.91
2023-02-05T16:52:35.791Z,-0.99
2023-02-05T16:57:39.538Z,-1.05
2023-02-05T17:02:41.938Z,-1.08
2023-02-05T17:07:53.249Z,-1.11
2023-02-05T17:13:03.441Z,-1.14
2023-02-05T17:18:30.146Z,-1.20
2023-02-05T17:23:32.187Z,-1.30
2023-02-05T17:28:38.205Z,-1.35
2023-02-05T17:33:40.245Z,-1.40
2023-02-05T17:38:42.189Z,-1.40
2023-02-05T17:43:44.293Z,-1.39
2023-02-05T17:48:47.238Z,-1.38
2023-02-05T17:53:50.056Z,-1.33
2023-02-05T17:58:53.444Z,-1.33
2023-02-05T18:03:55.184Z,-1.39
2023-02-05T18:08:57.293Z,-1.45
2023-02-05T18:13:59.140Z,-1.49
2023-02-05T18:19:01.579Z,-1.54
2023-02-05T18:24:04.025Z,-1.57
2023-02-05T18:29:06.630Z,-1.60
2023-02-05T18:34:15.838Z,-1.62
2023-02-05T18:39:17.788Z,-1.61
2023-02-05T18:44:20.001Z,-1.62
2023-02-05T18:49:22.916Z,-1.62
2023-02-05T18:54:25.060Z,-1.63
2023-02-05T18:59:28.862Z,-1.68
2023-02-05T19:04:33.091Z,-1.70
2023-02-05T19:09:36.627Z,-1.73
2023-02-05T19:14:39.452Z,-1.80
2023-02-05T19:19:41.697Z,-1.89
2023-02-05T19:24:44.692Z,-1.97
2023-02-05T19:29:47.885Z,-2.10
2023-02-05T19:34:51.716Z,-2.17
2023-02-05T19:39:54.005Z,-2.28
2023-02-05T19:44:56.531Z,-2.27
2023-02-05T19:49:58.350Z,-2.36
2023-02-05T19:55:02.063Z,-2.55
2023-02-05T20:00:04.651Z,-2.63
2023-02-05T20:05:14.025Z,-2.67
2023-02-05T20:10:16.280Z,-2.74
2023-02-05T20:15:18.495Z,-2.84
2023-02-05T20:20:32.836Z,-2.93
2023-02-05T20:25:35.461Z,-3.05
2023-02-05T20:30:56.150Z,-3.16
2023-02-05T20:36:03.817Z,-3.18
2023-02-05T20:41:17.721Z,-3.29
2023-02-05T20:46:19.877Z,-3.33
2023-02-05T20:51:23.111Z,-3.34
2023-02-05T20:56:27.508Z,-3.33
2023-02-05T21:01:32.168Z,-3.26
2023-02-05T21:06:37.409Z,-3.23
2023-02-05T21:11:40.214Z,-3.13
2023-02-05T21:16:42.758Z,-3.04
2023-02-05T21:21:45.724Z,-2.95
2023-02-05T21:26:49.435Z,-2.86
2023-02-05T21:31:55.522Z,-2.83
2023-02-05T21:37:00.499Z,-2.81
2023-02-05T21:42:02.632Z,-2.75
2023-02-05T21:47:04.981Z,-2.72
2023-02-05T21:52:08.305Z,-2.69
2023-02-05T21:57:10.701Z,-2.65
2023-02-05T22:02:12.677Z,-2.64
2023-02-05T22:07:15.135Z,-2.63
2023-02-05T22:12:18.452Z,-2.60
2023-02-05T22:17:22.409Z,-2.56
2023-02-05T22:22:24.447Z,-2.53
2023-02-05T22:27:27.255Z,-2.46
2023-02-05T22:32:32.194Z,-2.43
2023-02-05T22:37:34.746Z,-2.39
2023-02-05T22:42:36.695Z,-2.36
2023-02-05T22:47:38.691Z,-2.35
2023-02-05T22:52:40.773Z,-2.36
2023-02-05T22:57:43.190Z,-2.32
2023-02-05T23:02:46.432Z,-2.32
2023-02-05T23:07:49.907Z,-2.28
2023-02-05T23:12:52.413Z,-2.17
2023-02-05T23:17:54.474Z,-2.09
2023-02-05T23:22:56.618Z,-2.05
2023-02-05T23:27:58.643Z,-2.06
2023-02-05T23:33:01.230Z,-2.09
2023-02-05T23:38:03.569Z,-2.11
2023-02-05T23:43:06.142Z,-2.13
2023-02-05T23:48:10.989Z,-2.16
2023-02-05T23:53:13.351Z,-2.17
2023-02-05T23:58:23.065Z,-2.13
